• Join FlightAware (Why Join?)
  • Login
  • US Flag 
12:15AM EDT


 

Airport Tracker/Info


-or-


 

Live Flight TrackerFlight Track Log ✈ ENY2958 ✈ 03-Sep-2014 ✈ KOKC - KORD

Flight Track Log - Related Links

Times and Time Zones

All times are in EDT time to prevent confusion due to time zone crossing. See the ENY2958 flight status page for this flight to view local times or setup timezone preferences in your user account.

Time Position Orientation Groundspeed Altitude Reporting Facility
EDT Latitude Longitude Course Direction KTS MPH feet Rate Location/Type
05:52PM 35.3597 -97.6067 178° South 143 165 2,900  Level Fort Worth Center
05:52PM 35.3386 -97.5911 149° Southeast 187 215 3,900 2,100 Climbing Fort Worth Center
05:53PM 35.3142 -97.5103 110° East 259 298 6,100 2,400 Climbing Fort Worth Center
05:54PM 35.5415 -97.2271 63° Northeast  Level FlightAware Approximate
05:54PM 35.2906 -97.4100 106° East 289 333 8,900  Level Fort Worth Center
05:55PM 35.5960 -97.1023 61° Northeast  Level FlightAware Approximate
05:55PM 35.3339 -97.3189 60° Northeast 318 366 11,400  Level Fort Worth Center
05:56PM 35.6500 -96.9779 90° East  Level FlightAware Approximate
05:56PM 35.3881 -97.2206 56° Northeast 343 395 12,800  Level Fort Worth Center
05:57PM 35.4461 -97.1153 56° Northeast 382 440 13,800 1,080 Climbing Fort Worth Center
05:58PM 35.5128 -97.0006 54° Northeast 407 468 15,100 1,680 Climbing Fort Worth Center
05:59PM 35.5944 -96.8589 55° Northeast 420 483 17,400 1,860 Climbing Fort Worth Center
06:00PM 35.6342 -96.7894 55° Northeast 418 481 18,300 1,380 Climbing Kansas City Center
06:01PM 35.7033 -96.6692 55° Northeast 425 489 19,800 1,260 Climbing Kansas City Center
06:02PM 35.7728 -96.5456 55° Northeast 433 498 21,000 1,140 Climbing Kansas City Center
06:03PM 35.8439 -96.4200 55° Northeast 442 509 22,200 1,140 Climbing Kansas City Center
06:04PM 35.9161 -96.2917 55° Northeast 444 511 23,400 1,020 Climbing Kansas City Center
06:05PM 36.0042 -96.1353 55° Northeast 455 524 24,400 840 Climbing Kansas City Center
06:06PM 36.0783 -96.0017 55° Northeast 467 537 25,200 720 Climbing Kansas City Center
06:07PM 36.1544 -95.8650 55° Northeast 477 549 26,000 780 Climbing Kansas City Center
06:08PM 36.2267 -95.7289 57° Northeast 484 557 26,900 900 Climbing Kansas City Center
06:09PM 36.2958 -95.5833 59° Northeast 485 558 27,900 960 Climbing Kansas City Center
06:10PM 36.3783 -95.4086 60° Northeast 489 563 29,000 480 Climbing Kansas City Center
06:11PM 36.4514 -95.2633 58° Northeast 494 568 29,000  Level Kansas City Center
06:12PM 36.5203 -95.1181 59° Northeast 492 566 29,000  Level Kansas City Center
06:13PM 36.5861 -94.9792 59° Northeast 492 566 29,000  Level Kansas City Center
06:15PM 36.6678 -94.8081 59° Northeast 485 558 29,000  Level Kansas City Center
06:16PM 36.7350 -94.6647 60° Northeast 482 555 29,000  Level Kansas City Center
06:17PM 36.8014 -94.5211 60° Northeast 481 554 29,000  Level Kansas City Center
06:18PM 36.8814 -94.3894 53° Northeast 479 551 29,000  Level Kansas City Center
06:19PM 36.9769 -94.2792 43° Northeast 474 545 29,000  Level Kansas City Center
06:20PM 37.0742 -94.1647 43° Northeast 475 547 29,000  Level Kansas City Center
06:21PM 37.1806 -94.0378 44° Northeast 478 550 29,000  Level Kansas City Center
06:22PM 37.2808 -93.9183 43° Northeast 490 564 29,000  Level Kansas City Center
06:23PM 37.3800 -93.7994 44° Northeast 491 565 29,000  Level Kansas City Center
06:24PM 37.4967 -93.6567 44° Northeast 489 563 29,000  Level Kansas City Center
06:25PM 37.5956 -93.5406 43° Northeast 487 560 29,000  Level Kansas City Center
06:26PM 37.6897 -93.4197 45° Northeast 484 557 29,000  Level Kansas City Center
06:27PM 37.7867 -93.3017 44° Northeast 480 552 29,100  Climbing Kansas City Center
06:28PM 37.8847 -93.1819 44° Northeast 483 556 29,000 -60 Descending Kansas City Center
06:29PM 37.9842 -93.0606 44° Northeast 488 562 29,000  Level Kansas City Center
06:30PM 38.0833 -92.9367 45° Northeast 493 567 29,000  Level Kansas City Center
06:31PM 38.2031 -92.7894 44° Northeast 493 567 29,000  Level Kansas City Center
06:32PM 38.3022 -92.6653 44° Northeast 493 567 29,000  Level Kansas City Center
06:33PM 38.4008 -92.5414 45° Northeast 493 567 29,000  Level Kansas City Center
06:34PM 38.5003 -92.4172 44° Northeast 493 567 29,000  Level Kansas City Center
06:35PM 38.5975 -92.2936 45° Northeast 493 567 29,000  Level Kansas City Center
06:36PM 38.6911 -92.1750 45° Northeast 479 551 29,000  Level Kansas City Center
06:37PM 38.7836 -92.0567 45° Northeast 471 542 29,000  Level Kansas City Center
06:38PM 38.8786 -91.9358 45° Northeast 473 544 29,000  Level Kansas City Center
06:39PM 38.9881 -91.7944 45° Northeast 468 539 29,000  Level Kansas City Center
06:40PM 39.0675 -91.6769 49° Northeast 443 510 29,000  Level Kansas City Center
06:41PM 39.1756 -91.6300 19° North 426 490 29,000  Level Kansas City Center
06:42PM 39.2844 -91.6783 341° North 419 482 29,000  Level Kansas City Center
06:43PM 39.3939 -91.7017 351° North 411 473 29,000  Level Kansas City Center
06:45PM 39.4700 -91.5886 49° Northeast 437 503 29,000  Level Kansas City Center
06:46PM 39.5208 -91.4489 65° Northeast 442 509 29,000  Level Kansas City Center
06:47PM 39.5761 -91.3000 64° Northeast 442 509 29,000  Level Kansas City Center
06:48PM 39.6414 -91.1253 64° Northeast 445 512 29,000  Level Kansas City Center
06:49PM 39.6953 -90.9808 64° Northeast 445 512 29,000  Level Kansas City Center
06:50PM 39.7497 -90.8361 64° Northeast 445 512 29,000  Level Kansas City Center
06:51PM 39.7983 -90.7036 64° Northeast 445 512 29,000  Level Kansas City Center
06:52PM 39.8619 -90.5267 65° Northeast 446 513 29,000  Level Kansas City Center
06:53PM 39.9153 -90.3792 65° Northeast 449 517 29,000  Level Kansas City Center
06:54PM 39.9772 -90.2364 60° Northeast 457 526 29,000  Level Kansas City Center
06:55PM 40.0722 -90.1331 40° Northeast 447 514 29,000  Level Kansas City Center
06:56PM 40.1625 -90.0289 41° Northeast 437 503 29,000  Level Kansas City Center
06:57PM 40.2547 -89.9253 41° Northeast 439 505 29,000  Level Chicago Center
06:58PM 40.3528 -89.8136 41° Northeast 464 534 29,000  Level Chicago Center
06:59PM 40.4536 -89.6986 41° Northeast 481 554 29,000 -660 Level Chicago Center
07:00PM 40.5622 -89.5756 41° Northeast 484 557 27,700 -1,500 Descending Chicago Center
07:01PM 40.6697 -89.4517 41° Northeast 465 535 26,000 -1,560 Descending Chicago Center
07:02PM 40.7642 -89.3408 42° Northeast 461 531 24,500 -1,680 Descending Chicago Center
07:03PM 40.8561 -89.2331 42° Northeast 445 512 22,600 -1,980 Descending Chicago Center
07:04PM 40.9425 -89.1300 42° Northeast 421 484 20,500 -2,100 Descending Chicago Center
07:05PM 41.0392 -89.0136 42° Northeast 422 486 18,300 -2,040 Descending Chicago Center
07:06PM 41.1253 -88.9108 42° Northeast 417 480 16,300 -2,100 Descending Chicago Center
07:07PM 41.2169 -88.7986 43° Northeast 394 453 14,000 -2,100 Descending Chicago Center
07:08PM 41.2950 -88.7044 42° Northeast 380 437 12,000 -1,440 Descending Chicago Center
07:09PM 41.3783 -88.6022 43° Northeast 378 435 11,000 -480 Descending Chicago Center
07:10PM 41.4556 -88.5111 41° Northeast 372 428 11,000  Level Chicago Center
07:11PM 41.5325 -88.4192 42° Northeast 370 426 11,000  Level Chicago Center
07:12PM 41.6144 -88.3211 42° Northeast 369 425 11,000 -60 Level Chicago Center
07:13PM 41.6908 -88.2297 42° Northeast 368 423 10,900 -660 Descending Chicago Center
07:14PM 41.7617 -88.1456 42° Northeast 313 360 9,700 -1,440 Descending Chicago Center
07:15PM 41.8206 -88.0725 43° Northeast 293 337 8,000 -1,320 Descending Chicago Center
07:16PM 41.8806 -87.9867 47° Northeast 292 336 7,000 -540 Descending Chicago Center
07:17PM 41.8833 -87.8750 88° East 299 344 7,000  Level Chicago Center
07:19PM 41.8839 -87.7783 90° East 261 300 7,000 -780 Level Chicago Center
07:20PM 41.8839 -87.6772 90° East 255 293 5,500 -1,380 Descending Chicago Center
07:21PM 41.9156 -87.6094 58° Northeast 249 287 4,200 -720 Descending Chicago Center
07:22PM 41.9611 -87.6728 314° West 227 261 4,000 -780 Descending Chicago Center
07:23PM 41.9658 -87.7542 274° West 222 255 2,700 -1,200 Descending Chicago Center
07:24PM 41.9661 -87.8242 270° West 180 207 1,600 -900 Descending Chicago Center
07:25PM 41.9661 -87.8731 270° West 138 159 900 -720 Descending Chicago Center